120 км

Карта отелей и гостиниц, располагающихся рядом с аэропортом 120 км :

120 км Томская область 60° 8' 21.9012" N, 78° 3' 33.5988" E
120 км Томская область 60° 8' 21.9012" N, 78° 3' 33.5988" E
Код аэродрома ИКАО
HDU6
Код аэродрома RU
ХДУ6
Координаты
N60.13942° E078.05933°
Превышение над уровнем моря
72
Основная полоса
Курс магнитный
Длина основной ВПП
Ширина основной ВПП
Покрытие основной ВПП
Освещение ВПП
Тип: 
Вертодром
Класс аэродрома: 
Принадлежность: 
ГА
Статус: 
Действующий
Сайт: 
E-mail аэродрома: 
Страна: 
Россия
Регион: 
Томская область
Город: 
Дополнительная информация: 


Найти трансфер

С помощью этой формы Вы можете найти трансфер из аэропорта 120 км в город, аэропорт или вокзал:

Погода в аэропортах:

Авиационная погода в Игнатьево

Регион: 
Погода METAR: 
UHBB 291030Z 09002MPS 9000 -SHRA BKN026CB 12/12 Q0996 R36/290250 NOSIG RMK QFE730/0973
Время наблюдения
2022-05-29T10:30:00Z
Температура C
12.0
Точка росы
12.0
Направление ветра
90
Скорость ветра (узлы)
4
Метео видимость
5.59
Облачность
BKN
Нижняя граница облачности (футы)
2600
Явления погоды
-SHRA
Условия полета
MVFR
Аэропорт подробнее: 
BKN – значительная (рассеянная, разорванная) облачность;
-SHRA - слабый ливневой дождь;

Авиационная погода в Миккели

Регион: 
Погода METAR: 
EFMI 291020Z AUTO 19006KT 160V230 9999 -SHRA //////CB 13/10 Q1004
Время наблюдения
2022-05-29T10:20:00Z
Температура C
13.0
Точка росы
10.0
Направление ветра
190
Скорость ветра (узлы)
6
Метео видимость
6.21
Облачность
Нижняя граница облачности (футы)
Явления погоды
-SHRA
Условия полета
-SHRA - слабый ливневой дождь;

Авиационная погода в Пулково

Регион: 
Погода METAR: 
ULLI 291030Z 30004MPS 9999 -SHRA SCT021CB BKN040 13/10 Q1006 R28L/290050 R28R/190055 NOSIG
Время наблюдения
2022-05-29T10:30:00Z
Температура C
13.0
Точка росы
10.0
Направление ветра
300
Скорость ветра (узлы)
8
Метео видимость
6.21
Облачность
SCT
BKN
Нижняя граница облачности (футы)
2100
4000
Явления погоды
-SHRA
Условия полета
VFR
Аэропорт подробнее: 
SCT – разбросанная отдельная облачность; BKN – значительная (рассеянная, разорванная) облачность;
-SHRA - слабый ливневой дождь;

Авиационная погода в аэропорту Бесовец

Регион: 
Погода METAR: 
ULPB 291030Z VRB01MPS 9999 -RA SCT016 OVC043 14/12 Q1003 R19/09//60 NOSIG RMK QFE748/0998
Время наблюдения
2022-05-29T10:30:00Z
Температура C
14.0
Точка росы
12.0
Направление ветра
0
Скорость ветра (узлы)
2
Метео видимость
6.21
Облачность
SCT
OVC
Нижняя граница облачности (футы)
1600
4300
Явления погоды
-RA
Условия полета
VFR
Аэропорт подробнее: 
SCT – разбросанная отдельная облачность; OVC – сплошная облачность;
-RA - слабый дождь;